sensor_id;sensor_type;location;lat;lon;timestamp;pressure;altitude;pressure_sealevel;temperature;humidity
21361;BME280;10839;43.206;23.550;2023-03-15T00:02:05;96003.03;;;9.87;44.12
21361;BME280;10839;43.206;23.550;2023-03-15T00:04:32;96005.72;;;9.87;44.21
21361;BME280;10839;43.206;23.550;2023-03-15T00:06:59;96000.06;;;9.95;43.77
21361;BME280;10839;43.206;23.550;2023-03-15T00:09:26;95999.03;;;9.96;43.80
21361;BME280;10839;43.206;23.550;2023-03-15T00:11:53;95981.88;;;9.73;44.09
21361;BME280;10839;43.206;23.550;2023-03-15T00:14:21;95998.94;;;9.78;44.02
21361;BME280;10839;43.206;23.550;2023-03-15T00:16:47;95986.31;;;9.85;44.09
21361;BME280;10839;43.206;23.550;2023-03-15T00:19:13;95987.47;;;9.96;43.82
21361;BME280;10839;43.206;23.550;2023-03-15T00:21:40;95987.34;;;9.84;43.98
21361;BME280;10839;43.206;23.550;2023-03-15T00:24:09;95990.38;;;9.94;43.72
21361;BME280;10839;43.206;23.550;2023-03-15T00:26:36;95984.63;;;9.91;43.77
21361;BME280;10839;43.206;23.550;2023-03-15T00:29:03;95973.81;;;9.97;43.88
21361;BME280;10839;43.206;23.550;2023-03-15T00:31:30;95972.19;;;9.90;43.63
21361;BME280;10839;43.206;23.550;2023-03-15T00:33:56;95961.50;;;9.83;43.86
21361;BME280;10839;43.206;23.550;2023-03-15T00:36:23;95973.03;;;9.90;43.69
21361;BME280;10839;43.206;23.550;2023-03-15T00:38:52;95971.72;;;9.99;43.21
21361;BME280;10839;43.206;23.550;2023-03-15T00:41:19;95962.28;;;9.90;43.58
21361;BME280;10839;43.206;23.550;2023-03-15T00:43:46;95960.97;;;9.99;43.53
21361;BME280;10839;43.206;23.550;2023-03-15T00:46:13;95964.84;;;10.03;43.15
21361;BME280;10839;43.206;23.550;2023-03-15T00:48:39;95959.75;;;9.95;43.34
21361;BME280;10839;43.206;23.550;2023-03-15T00:51:08;95956.97;;;10.08;42.41
21361;BME280;10839;43.206;23.550;2023-03-15T00:53:38;95967.03;;;10.19;42.88
21361;BME280;10839;43.206;23.550;2023-03-15T00:56:10;95958.53;;;9.42;49.00
21361;BME280;10839;43.206;23.550;2023-03-15T00:58:37;95961.69;;;9.33;51.20
21361;BME280;10839;43.206;23.550;2023-03-15T01:01:08;95965.28;;;9.20;49.33
21361;BME280;10839;43.206;23.550;2023-03-15T01:03:37;95958.13;;;9.39;50.08
21361;BME280;10839;43.206;23.550;2023-03-15T01:06:12;95959.13;;;9.44;51.66
21361;BME280;10839;43.206;23.550;2023-03-15T01:08:38;95964.16;;;9.65;51.89
21361;BME280;10839;43.206;23.550;2023-03-15T01:11:14;95946.97;;;9.42;48.52
21361;BME280;10839;43.206;23.550;2023-03-15T01:13:41;95948.56;;;9.49;47.03
21361;BME280;10839;43.206;23.550;2023-03-15T01:16:09;95945.28;;;9.47;48.95
21361;BME280;10839;43.206;23.550;2023-03-15T01:18:35;95944.50;;;9.40;48.15
21361;BME280;10839;43.206;23.550;2023-03-15T01:21:05;95926.59;;;9.59;45.60
21361;BME280;10839;43.206;23.550;2023-03-15T01:23:32;95928.09;;;9.79;45.03
21361;BME280;10839;43.206;23.550;2023-03-15T01:26:02;95915.81;;;9.65;44.58
21361;BME280;10839;43.206;23.550;2023-03-15T01:28:28;95938.56;;;9.87;47.67
21361;BME280;10839;43.206;23.550;2023-03-15T01:30:56;95923.34;;;9.50;45.67
21361;BME280;10839;43.206;23.550;2023-03-15T01:33:22;95920.44;;;9.52;46.45
21361;BME280;10839;43.206;23.550;2023-03-15T01:35:54;95933.59;;;9.66;48.80
21361;BME280;10839;43.206;23.550;2023-03-15T01:38:22;95933.50;;;9.17;52.93
21361;BME280;10839;43.206;23.550;2023-03-15T01:40:48;95926.91;;;9.20;52.88
21361;BME280;10839;43.206;23.550;2023-03-15T01:43:24;95949.19;;;9.51;53.70
21361;BME280;10839;43.206;23.550;2023-03-15T01:48:44;95937.59;;;9.26;54.58
21361;BME280;10839;43.206;23.550;2023-03-15T01:54:26;95932.31;;;9.13;56.06
21361;BME280;10839;43.206;23.550;2023-03-15T01:56:58;95927.69;;;9.20;56.59
21361;BME280;10839;43.206;23.550;2023-03-15T01:59:34;95930.56;;;9.25;56.07
21361;BME280;10839;43.206;23.550;2023-03-15T02:02:02;95924.44;;;9.18;56.15
21361;BME280;10839;43.206;23.550;2023-03-15T02:04:43;95923.47;;;9.37;55.30
21361;BME280;10839;43.206;23.550;2023-03-15T02:07:15;95926.16;;;9.06;56.56
21361;BME280;10839;43.206;23.550;2023-03-15T02:12:17;95929.00;;;9.11;56.32
21361;BME280;10839;43.206;23.550;2023-03-15T02:14:48;95926.50;;;9.16;56.39
21361;BME280;10839;43.206;23.550;2023-03-15T02:17:21;95915.84;;;9.03;56.48
21361;BME280;10839;43.206;23.550;2023-03-15T02:20:22;95918.28;;;9.11;56.30
21361;BME280;10839;43.206;23.550;2023-03-15T02:22:59;95900.28;;;9.18;56.62
21361;BME280;10839;43.206;23.550;2023-03-15T02:28:09;95893.69;;;8.83;57.91
21361;BME280;10839;43.206;23.550;2023-03-15T02:30:36;95891.44;;;9.11;57.37
21361;BME280;10839;43.206;23.550;2023-03-15T02:33:08;95897.66;;;9.05;57.77
21361;BME280;10839;43.206;23.550;2023-03-15T02:35:35;95905.81;;;9.23;57.59
21361;BME280;10839;43.206;23.550;2023-03-15T02:38:01;95901.19;;;9.05;57.98
21361;BME280;10839;43.206;23.550;2023-03-15T02:40:28;95909.09;;;9.25;57.04
21361;BME280;10839;43.206;23.550;2023-03-15T02:42:58;95902.00;;;9.37;57.04
21361;BME280;10839;43.206;23.550;2023-03-15T02:45:26;95894.44;;;9.52;56.51
21361;BME280;10839;43.206;23.550;2023-03-15T02:47:55;95897.78;;;9.23;57.47
21361;BME280;10839;43.206;23.550;2023-03-15T02:50:22;95895.50;;;9.20;58.10
21361;BME280;10839;43.206;23.550;2023-03-15T02:52:47;95906.22;;;9.20;57.86
21361;BME280;10839;43.206;23.550;2023-03-15T02:55:13;95903.38;;;9.15;57.74
21361;BME280;10839;43.206;23.550;2023-03-15T02:57:39;95904.16;;;9.22;57.21
21361;BME280;10839;43.206;23.550;2023-03-15T03:00:06;95902.00;;;9.37;56.84
21361;BME280;10839;43.206;23.550;2023-03-15T03:02:41;95914.75;;;9.42;57.05
21361;BME280;10839;43.206;23.550;2023-03-15T03:05:11;95916.56;;;9.23;58.07
21361;BME280;10839;43.206;23.550;2023-03-15T03:07:37;95915.72;;;9.23;57.71
21361;BME280;10839;43.206;23.550;2023-03-15T03:10:06;95921.53;;;9.20;58.28
21361;BME280;10839;43.206;23.550;2023-03-15T03:12:42;95928.94;;;9.24;58.37
21361;BME280;10839;43.206;23.550;2023-03-15T03:15:10;95936.00;;;9.12;58.43
21361;BME280;10839;43.206;23.550;2023-03-15T03:17:36;95924.44;;;9.18;58.29
21361;BME280;10839;43.206;23.550;2023-03-15T03:20:09;95928.66;;;9.32;57.47
21361;BME280;10839;43.206;23.550;2023-03-15T03:22:40;95928.75;;;9.19;58.40
21361;BME280;10839;43.206;23.550;2023-03-15T03:25:08;95928.66;;;9.01;58.19
21361;BME280;10839;43.206;23.550;2023-03-15T03:27:35;95934.09;;;8.88;58.48
21361;BME280;10839;43.206;23.550;2023-03-15T03:30:04;95936.13;;;8.92;58.51
21361;BME280;10839;43.206;23.550;2023-03-15T03:32:32;95931.66;;;8.80;59.39
21361;BME280;10839;43.206;23.550;2023-03-15T03:34:58;95924.28;;;8.69;59.71
21361;BME280;10839;43.206;23.550;2023-03-15T03:37:26;95928.78;;;8.81;59.57
21361;BME280;10839;43.206;23.550;2023-03-15T03:39:59;95921.22;;;8.59;60.00
21361;BME280;10839;43.206;23.550;2023-03-15T03:42:25;95916.84;;;8.71;59.61
21361;BME280;10839;43.206;23.550;2023-03-15T03:44:51;95915.25;;;8.57;59.74
21361;BME280;10839;43.206;23.550;2023-03-15T03:47:19;95920.56;;;8.63;59.29
21361;BME280;10839;43.206;23.550;2023-03-15T03:49:45;95908.38;;;8.74;59.32
21361;BME280;10839;43.206;23.550;2023-03-15T03:52:11;95914.41;;;8.63;59.57
21361;BME280;10839;43.206;23.550;2023-03-15T03:54:38;95898.69;;;8.73;59.30
21361;BME280;10839;43.206;23.550;2023-03-15T03:57:04;95897.53;;;8.56;59.71
21361;BME280;10839;43.206;23.550;2023-03-15T03:59:33;95900.66;;;8.53;60.64
21361;BME280;10839;43.206;23.550;2023-03-15T04:02:04;95896.47;;;8.57;60.62
21361;BME280;10839;43.206;23.550;2023-03-15T04:04:30;95898.16;;;8.58;59.56
21361;BME280;10839;43.206;23.550;2023-03-15T04:06:56;95906.47;;;8.43;60.34
21361;BME280;10839;43.206;23.550;2023-03-15T04:09:27;95905.44;;;8.38;60.56
21361;BME280;10839;43.206;23.550;2023-03-15T04:11:53;95909.59;;;8.27;60.86
21361;BME280;10839;43.206;23.550;2023-03-15T04:14:20;95907.50;;;8.36;61.03
21361;BME280;10839;43.206;23.550;2023-03-15T04:16:48;95909.94;;;8.44;60.48
21361;BME280;10839;43.206;23.550;2023-03-15T04:19:17;95909.13;;;8.37;60.20
21361;BME280;10839;43.206;23.550;2023-03-15T04:21:43;95909.38;;;8.29;61.27
21361;BME280;10839;43.206;23.550;2023-03-15T04:24:30;95903.00;;;8.17;61.07
21361;BME280;10839;43.206;23.550;2023-03-15T04:27:18;95903.41;;;8.14;61.78
21361;BME280;10839;43.206;23.550;2023-03-15T04:29:57;95907.34;;;8.18;60.96
21361;BME280;10839;43.206;23.550;2023-03-15T04:32:35;95912.25;;;8.21;61.59
21361;BME280;10839;43.206;23.550;2023-03-15T04:35:16;95906.09;;;8.14;61.80
21361;BME280;10839;43.206;23.550;2023-03-15T04:37:55;95906.47;;;8.30;61.16
21361;BME280;10839;43.206;23.550;2023-03-15T04:40:52;95901.53;;;8.21;61.16
21361;BME280;10839;43.206;23.550;2023-03-15T04:43:45;95899.72;;;8.15;61.60
21361;BME280;10839;43.206;23.550;2023-03-15T04:46:21;95889.00;;;8.15;61.81
21361;BME280;10839;43.206;23.550;2023-03-15T04:49:19;95892.50;;;8.09;61.87
21361;BME280;10839;43.206;23.550;2023-03-15T04:52:14;95892.13;;;7.99;62.43
21361;BME280;10839;43.206;23.550;2023-03-15T04:55:01;95903.41;;;8.14;61.96
21361;BME280;10839;43.206;23.550;2023-03-15T04:57:46;95899.09;;;8.13;62.12
21361;BME280;10839;43.206;23.550;2023-03-15T05:00:42;95884.84;;;8.32;61.45
21361;BME280;10839;43.206;23.550;2023-03-15T05:03:31;95890.19;;;8.32;61.49
21361;BME280;10839;43.206;23.550;2023-03-15T05:06:28;95884.00;;;8.38;61.66
21361;BME280;10839;43.206;23.550;2023-03-15T05:08:55;95891.31;;;8.62;60.30
21361;BME280;10839;43.206;23.550;2023-03-15T05:11:30;95893.41;;;8.60;60.48
21361;BME280;10839;43.206;23.550;2023-03-15T05:14:34;95888.84;;;8.60;60.35
21361;BME280;10839;43.206;23.550;2023-03-15T05:17:29;95879.22;;;8.84;59.32
21361;BME280;10839;43.206;23.550;2023-03-15T05:20:15;95894.75;;;9.13;58.15
21361;BME280;10839;43.206;23.550;2023-03-15T05:22:49;95884.13;;;8.93;58.41
21361;BME280;10839;43.206;23.550;2023-03-15T05:25:55;95892.81;;;8.89;58.70
21361;BME280;10839;43.206;23.550;2023-03-15T05:28:41;95890.56;;;9.17;57.55
21361;BME280;10839;43.206;23.550;2023-03-15T05:31:28;95891.22;;;9.13;57.26
21361;BME280;10839;43.206;23.550;2023-03-15T05:34:18;95878.06;;;9.36;56.86
21361;BME280;10839;43.206;23.550;2023-03-15T05:36:59;95864.22;;;10.24;54.82
21361;BME280;10839;43.206;23.550;2023-03-15T05:39:43;95866.38;;;11.11;51.28
21361;BME280;10839;43.206;23.550;2023-03-15T05:42:27;95866.03;;;10.05;53.71
21361;BME280;10839;43.206;23.550;2023-03-15T05:45:16;95870.69;;;9.74;54.90
21361;BME280;10839;43.206;23.550;2023-03-15T05:48:02;95857.34;;;9.85;55.46
21361;BME280;10839;43.206;23.550;2023-03-15T05:50:38;95864.97;;;10.06;54.31
21361;BME280;10839;43.206;23.550;2023-03-15T05:53:16;95878.13;;;10.69;53.38
21361;BME280;10839;43.206;23.550;2023-03-15T05:56:01;95877.47;;;11.03;52.51
21361;BME280;10839;43.206;23.550;2023-03-15T05:59:04;95867.41;;;11.10;51.65
21361;BME280;10839;43.206;23.550;2023-03-15T06:01:56;95862.34;;;11.02;51.41
21361;BME280;10839;43.206;23.550;2023-03-15T06:04:28;95865.19;;;11.07;51.67
21361;BME280;10839;43.206;23.550;2023-03-15T06:06:56;95860.47;;;11.43;50.99
21361;BME280;10839;43.206;23.550;2023-03-15T06:09:22;95858.66;;;11.67;50.50
21361;BME280;10839;43.206;23.550;2023-03-15T06:11:49;95859.84;;;12.17;48.82
21361;BME280;10839;43.206;23.550;2023-03-15T06:14:15;95857.31;;;14.18;43.95
21361;BME280;10839;43.206;23.550;2023-03-15T06:16:50;95866.47;;;15.73;40.65
21361;BME280;10839;43.206;23.550;2023-03-15T06:19:18;95861.66;;;16.53;39.74
21361;BME280;10839;43.206;23.550;2023-03-15T06:21:44;95863.94;;;17.58;37.69
21361;BME280;10839;43.206;23.550;2023-03-15T06:24:19;95854.91;;;18.63;35.26
21361;BME280;10839;43.206;23.550;2023-03-15T06:26:45;95857.59;;;19.80;33.41
21361;BME280;10839;43.206;23.550;2023-03-15T06:29:12;95851.16;;;20.86;31.78
21361;BME280;10839;43.206;23.550;2023-03-15T06:31:38;95858.19;;;20.92;31.41
21361;BME280;10839;43.206;23.550;2023-03-15T06:34:08;95849.47;;;20.43;31.23
21361;BME280;10839;43.206;23.550;2023-03-15T06:36:34;95853.91;;;20.33;30.71
21361;BME280;10839;43.206;23.550;2023-03-15T06:39:02;95854.31;;;20.98;29.87
21361;BME280;10839;43.206;23.550;2023-03-15T06:41:28;95850.41;;;21.27;27.97
21361;BME280;10839;43.206;23.550;2023-03-15T06:44:03;95857.53;;;21.47;27.63
21361;BME280;10839;43.206;23.550;2023-03-15T06:46:29;95850.13;;;22.03;27.12
21361;BME280;10839;43.206;23.550;2023-03-15T06:48:55;95853.81;;;23.31;25.82
21361;BME280;10839;43.206;23.550;2023-03-15T06:51:21;95853.59;;;23.41;25.83
21361;BME280;10839;43.206;23.550;2023-03-15T06:53:47;95849.91;;;23.59;25.62
21361;BME280;10839;43.206;23.550;2023-03-15T06:56:13;95844.66;;;23.49;25.18
21361;BME280;10839;43.206;23.550;2023-03-15T06:58:39;95857.28;;;22.96;25.14
21361;BME280;10839;43.206;23.550;2023-03-15T07:01:05;95851.44;;;22.38;25.59
21361;BME280;10839;43.206;23.550;2023-03-15T07:03:31;95845.75;;;22.34;25.99
21361;BME280;10839;43.206;23.550;2023-03-15T07:05:57;95841.41;;;23.47;24.33
21361;BME280;10839;43.206;23.550;2023-03-15T07:08:25;95843.94;;;22.43;25.54
21361;BME280;10839;43.206;23.550;2023-03-15T07:10:51;95845.22;;;21.44;26.32
21361;BME280;10839;43.206;23.550;2023-03-15T07:13:18;95840.44;;;22.56;25.92
21361;BME280;10839;43.206;23.550;2023-03-15T07:15:44;95839.38;;;22.07;26.23
21361;BME280;10839;43.206;23.550;2023-03-15T07:18:12;95838.97;;;22.91;25.65
21361;BME280;10839;43.206;23.550;2023-03-15T07:20:38;95829.53;;;22.51;25.82
21361;BME280;10839;43.206;23.550;2023-03-15T07:23:04;95841.00;;;23.40;25.16
21361;BME280;10839;43.206;23.550;2023-03-15T07:25:30;95836.97;;;20.84;27.40
21361;BME280;10839;43.206;23.550;2023-03-15T07:27:56;95837.56;;;20.81;28.23
21361;BME280;10839;43.206;23.550;2023-03-15T07:30:21;95835.22;;;22.09;27.15
21361;BME280;10839;43.206;23.550;2023-03-15T07:32:47;95840.50;;;21.50;28.21
21361;BME280;10839;43.206;23.550;2023-03-15T07:35:13;95844.03;;;23.25;26.68
21361;BME280;10839;43.206;23.550;2023-03-15T07:37:40;95855.63;;;24.20;25.98
21361;BME280;10839;43.206;23.550;2023-03-15T07:40:06;95858.13;;;24.08;26.01
21361;BME280;10839;43.206;23.550;2023-03-15T07:42:36;95853.94;;;24.33;25.74
21361;BME280;10839;43.206;23.550;2023-03-15T07:45:03;95842.28;;;25.27;24.39
21361;BME280;10839;43.206;23.550;2023-03-15T07:47:30;95844.16;;;25.01;24.55
21361;BME280;10839;43.206;23.550;2023-03-15T07:49:56;95839.50;;;25.84;23.88
21361;BME280;10839;43.206;23.550;2023-03-15T07:52:23;95830.75;;;25.17;23.78
21361;BME280;10839;43.206;23.550;2023-03-15T07:54:49;95837.34;;;25.47;23.55
21361;BME280;10839;43.206;23.550;2023-03-15T07:57:15;95835.16;;;26.08;22.18
21361;BME280;10839;43.206;23.550;2023-03-15T07:59:41;95828.06;;;24.64;23.20
21361;BME280;10839;43.206;23.550;2023-03-15T08:02:10;95833.66;;;24.20;24.00
21361;BME280;10839;43.206;23.550;2023-03-15T08:04:36;95831.81;;;23.58;24.39
21361;BME280;10839;43.206;23.550;2023-03-15T08:07:02;95834.56;;;21.43;26.48
21361;BME280;10839;43.206;23.550;2023-03-15T08:09:28;95829.34;;;20.57;27.05
21361;BME280;10839;43.206;23.550;2023-03-15T08:11:54;95824.63;;;20.05;27.86
21361;BME280;10839;43.206;23.550;2023-03-15T08:14:19;95822.66;;;19.82;28.65
21361;BME280;10839;43.206;23.550;2023-03-15T08:16:45;95824.34;;;19.40;29.03
21361;BME280;10839;43.206;23.550;2023-03-15T08:19:11;95820.88;;;20.30;28.33
21361;BME280;10839;43.206;23.550;2023-03-15T08:21:38;95817.47;;;20.67;27.07
21361;BME280;10839;43.206;23.550;2023-03-15T08:24:04;95816.50;;;20.58;27.49
21361;BME280;10839;43.206;23.550;2023-03-15T08:26:30;95807.25;;;21.01;27.21
21361;BME280;10839;43.206;23.550;2023-03-15T08:28:55;95818.22;;;21.38;27.04
21361;BME280;10839;43.206;23.550;2023-03-15T08:31:22;95817.53;;;21.09;26.94
21361;BME280;10839;43.206;23.550;2023-03-15T08:33:48;95818.78;;;20.93;27.07
21361;BME280;10839;43.206;23.550;2023-03-15T08:36:14;95820.22;;;21.70;26.93
21361;BME280;10839;43.206;23.550;2023-03-15T08:38:39;95827.44;;;22.16;26.16
21361;BME280;10839;43.206;23.550;2023-03-15T08:41:06;95825.25;;;21.25;27.12
21361;BME280;10839;43.206;23.550;2023-03-15T08:43:32;95825.09;;;21.17;26.58
21361;BME280;10839;43.206;23.550;2023-03-15T08:45:58;95824.22;;;21.58;26.39
21361;BME280;10839;43.206;23.550;2023-03-15T08:48:24;95819.00;;;20.25;27.71
21361;BME280;10839;43.206;23.550;2023-03-15T08:50:49;95815.03;;;19.79;27.72
21361;BME280;10839;43.206;23.550;2023-03-15T08:53:16;95812.19;;;19.94;27.74
21361;BME280;10839;43.206;23.550;2023-03-15T08:55:42;95815.06;;;19.74;28.13
21361;BME280;10839;43.206;23.550;2023-03-15T08:58:08;95818.34;;;20.05;28.43
21361;BME280;10839;43.206;23.550;2023-03-15T09:00:34;95820.44;;;20.94;27.54
21361;BME280;10839;43.206;23.550;2023-03-15T09:03:00;95829.19;;;20.72;27.86
21361;BME280;10839;43.206;23.550;2023-03-15T09:05:26;95825.56;;;20.53;28.12
21361;BME280;10839;43.206;23.550;2023-03-15T09:07:52;95811.47;;;20.88;27.74
21361;BME280;10839;43.206;23.550;2023-03-15T09:10:18;95817.72;;;21.36;27.23
21361;BME280;10839;43.206;23.550;2023-03-15T09:12:49;95831.03;;;21.24;26.96
21361;BME280;10839;43.206;23.550;2023-03-15T09:15:16;95834.53;;;20.59;28.05
21361;BME280;10839;43.206;23.550;2023-03-15T09:17:43;95827.06;;;20.41;28.08
21361;BME280;10839;43.206;23.550;2023-03-15T09:20:11;95830.88;;;20.40;28.40
21361;BME280;10839;43.206;23.550;2023-03-15T09:22:50;95841.34;;;19.65;29.45
21361;BME280;10839;43.206;23.550;2023-03-15T09:25:16;95839.34;;;19.37;29.51
21361;BME280;10839;43.206;23.550;2023-03-15T09:27:42;95842.81;;;19.86;29.11
21361;BME280;10839;43.206;23.550;2023-03-15T09:30:08;95841.09;;;19.95;28.80
21361;BME280;10839;43.206;23.550;2023-03-15T09:32:35;95833.22;;;19.55;29.63
21361;BME280;10839;43.206;23.550;2023-03-15T09:35:06;95824.19;;;19.11;29.92
21361;BME280;10839;43.206;23.550;2023-03-15T09:37:33;95825.66;;;19.42;29.59
21361;BME280;10839;43.206;23.550;2023-03-15T09:39:59;95841.25;;;19.75;29.58
21361;BME280;10839;43.206;23.550;2023-03-15T09:45:45;95833.53;;;20.21;29.53
21361;BME280;10839;43.206;23.550;2023-03-15T09:58:55;95821.28;;;20.13;28.82
21361;BME280;10839;43.206;23.550;2023-03-15T10:01:31;95831.25;;;19.99;29.88
21361;BME280;10839;43.206;23.550;2023-03-15T10:04:07;95837.66;;;19.46;30.25
21361;BME280;10839;43.206;23.550;2023-03-15T10:06:36;95836.81;;;18.92;30.92
21361;BME280;10839;43.206;23.550;2023-03-15T10:09:10;95838.53;;;18.78;31.32
21361;BME280;10839;43.206;23.550;2023-03-15T10:11:53;95839.03;;;18.80;31.50
21361;BME280;10839;43.206;23.550;2023-03-15T10:17:03;95846.28;;;17.80;33.41
21361;BME280;10839;43.206;23.550;2023-03-15T10:19:57;95850.09;;;17.69;33.52
21361;BME280;10839;43.206;23.550;2023-03-15T10:22:33;95844.91;;;17.93;33.42
21361;BME280;10839;43.206;23.550;2023-03-15T10:25:17;95847.09;;;17.96;33.87
21361;BME280;10839;43.206;23.550;2023-03-15T10:30:30;95839.41;;;17.43;35.12
21361;BME280;10839;43.206;23.550;2023-03-15T10:35:25;95850.84;;;17.40;35.46
21361;BME280;10839;43.206;23.550;2023-03-15T10:37:51;95841.53;;;17.21;35.91
21361;BME280;10839;43.206;23.550;2023-03-15T10:40:43;95853.22;;;17.16;36.13
21361;BME280;10839;43.206;23.550;2023-03-15T10:43:28;95857.03;;;17.20;35.62
21361;BME280;10839;43.206;23.550;2023-03-15T10:46:03;95847.22;;;17.14;35.64
21361;BME280;10839;43.206;23.550;2023-03-15T10:48:34;95845.88;;;17.27;35.45
21361;BME280;10839;43.206;23.550;2023-03-15T10:51:19;95847.06;;;17.56;35.38
21361;BME280;10839;43.206;23.550;2023-03-15T10:53:52;95844.81;;;17.23;35.61
21361;BME280;10839;43.206;23.550;2023-03-15T10:56:29;95837.00;;;17.51;35.50
21361;BME280;10839;43.206;23.550;2023-03-15T10:58:57;95846.00;;;17.77;35.13
21361;BME280;10839;43.206;23.550;2023-03-15T11:01:26;95839.66;;;17.31;36.10
21361;BME280;10839;43.206;23.550;2023-03-15T11:04:16;95839.75;;;17.81;35.65
21361;BME280;10839;43.206;23.550;2023-03-15T11:06:49;95838.66;;;17.82;35.90
21361;BME280;10839;43.206;23.550;2023-03-15T11:09:19;95834.59;;;17.70;36.28
21361;BME280;10839;43.206;23.550;2023-03-15T11:11:51;95838.53;;;17.12;36.52
21361;BME280;10839;43.206;23.550;2023-03-15T11:14:18;95834.28;;;17.56;35.88
21361;BME280;10839;43.206;23.550;2023-03-15T11:16:54;95841.75;;;16.99;36.95
21361;BME280;10839;43.206;23.550;2023-03-15T11:19:24;95840.72;;;17.30;36.54
21361;BME280;10839;43.206;23.550;2023-03-15T11:21:52;95839.03;;;17.04;36.72
21361;BME280;10839;43.206;23.550;2023-03-15T11:24:39;95841.13;;;16.77;37.44
21361;BME280;10839;43.206;23.550;2023-03-15T11:27:14;95833.09;;;16.09;37.61
21361;BME280;10839;43.206;23.550;2023-03-15T11:29:53;95840.34;;;15.93;37.90
21361;BME280;10839;43.206;23.550;2023-03-15T11:32:24;95838.31;;;15.79;38.47
21361;BME280;10839;43.206;23.550;2023-03-15T11:35:11;95848.63;;;15.45;38.91
21361;BME280;10839;43.206;23.550;2023-03-15T11:37:46;95843.38;;;15.38;39.26
21361;BME280;10839;43.206;23.550;2023-03-15T11:40:20;95854.84;;;15.46;39.55
21361;BME280;10839;43.206;23.550;2023-03-15T11:42:57;95848.06;;;15.75;38.92
21361;BME280;10839;43.206;23.550;2023-03-15T11:45:34;95842.06;;;15.73;39.20
21361;BME280;10839;43.206;23.550;2023-03-15T11:51:17;95840.94;;;15.64;40.19
21361;BME280;10839;43.206;23.550;2023-03-15T11:56:27;95820.59;;;16.03;39.29
21361;BME280;10839;43.206;23.550;2023-03-15T11:59:15;95833.72;;;16.16;39.08
21361;BME280;10839;43.206;23.550;2023-03-15T12:04:40;95834.63;;;15.90;39.15
21361;BME280;10839;43.206;23.550;2023-03-15T12:17:49;95823.72;;;14.73;40.97
21361;BME280;10839;43.206;23.550;2023-03-15T12:20:17;95826.28;;;14.85;40.61
21361;BME280;10839;43.206;23.550;2023-03-15T12:22:56;95837.00;;;14.75;40.86
21361;BME280;10839;43.206;23.550;2023-03-15T12:25:38;95833.91;;;14.66;40.77
21361;BME280;10839;43.206;23.550;2023-03-15T12:28:28;95836.06;;;15.12;40.32
21361;BME280;10839;43.206;23.550;2023-03-15T12:30:57;95832.13;;;14.98;40.75
21361;BME280;10839;43.206;23.550;2023-03-15T12:33:27;95843.75;;;14.99;40.45
21361;BME280;10839;43.206;23.550;2023-03-15T12:36:08;95844.16;;;14.86;40.72
21361;BME280;10839;43.206;23.550;2023-03-15T12:38:53;95842.22;;;14.81;40.95
21361;BME280;10839;43.206;23.550;2023-03-15T12:44:25;95831.91;;;14.78;41.26
21361;BME280;10839;43.206;23.550;2023-03-15T12:47:08;95840.94;;;14.67;42.05
21361;BME280;10839;43.206;23.550;2023-03-15T12:49:43;95837.94;;;14.42;42.38
21361;BME280;10839;43.206;23.550;2023-03-15T12:55:02;95837.44;;;14.45;42.69
21361;BME280;10839;43.206;23.550;2023-03-15T12:57:38;95840.03;;;14.19;43.32
21361;BME280;10839;43.206;23.550;2023-03-15T13:00:13;95840.59;;;14.59;42.51
21361;BME280;10839;43.206;23.550;2023-03-15T13:03:04;95839.66;;;14.70;42.48
21361;BME280;10839;43.206;23.550;2023-03-15T13:05:58;95836.81;;;14.38;43.02
21361;BME280;10839;43.206;23.550;2023-03-15T13:09:17;95823.03;;;14.23;43.59
21361;BME280;10839;43.206;23.550;2023-03-15T13:11:59;95819.84;;;14.26;43.41
21361;BME280;10839;43.206;23.550;2023-03-15T13:14:38;95824.28;;;14.54;43.36
21361;BME280;10839;43.206;23.550;2023-03-15T13:17:30;95808.13;;;14.37;43.71
21361;BME280;10839;43.206;23.550;2023-03-15T13:20:39;95817.41;;;14.46;43.74
21361;BME280;10839;43.206;23.550;2023-03-15T13:23:20;95819.94;;;14.31;44.16
21361;BME280;10839;43.206;23.550;2023-03-15T13:31:21;95819.94;;;14.53;43.89
21361;BME280;10839;43.206;23.550;2023-03-15T13:33:53;95823.25;;;14.81;43.36
21361;BME280;10839;43.206;23.550;2023-03-15T13:36:45;95823.53;;;15.06;42.27
21361;BME280;10839;43.206;23.550;2023-03-15T13:39:21;95814.53;;;15.01;42.72
21361;BME280;10839;43.206;23.550;2023-03-15T13:42:17;95810.44;;;15.25;42.27
21361;BME280;10839;43.206;23.550;2023-03-15T13:44:44;95816.75;;;15.35;42.05
21361;BME280;10839;43.206;23.550;2023-03-15T13:47:19;95819.31;;;15.20;42.02
21361;BME280;10839;43.206;23.550;2023-03-15T13:49:51;95821.75;;;14.90;42.17
21361;BME280;10839;43.206;23.550;2023-03-15T13:52:17;95808.09;;;14.80;42.72
21361;BME280;10839;43.206;23.550;2023-03-15T13:54:43;95808.84;;;15.29;41.87
21361;BME280;10839;43.206;23.550;2023-03-15T13:57:17;95808.75;;;14.92;42.41
21361;BME280;10839;43.206;23.550;2023-03-15T14:00:07;95809.94;;;15.55;41.70
21361;BME280;10839;43.206;23.550;2023-03-15T14:02:47;95825.56;;;15.21;42.64
21361;BME280;10839;43.206;23.550;2023-03-15T14:05:31;95827.59;;;14.82;43.44
21361;BME280;10839;43.206;23.550;2023-03-15T14:08:02;95825.31;;;15.22;42.67
21361;BME280;10839;43.206;23.550;2023-03-15T14:13:25;95822.97;;;15.04;43.04
21361;BME280;10839;43.206;23.550;2023-03-15T14:16:06;95815.56;;;15.21;42.89
21361;BME280;10839;43.206;23.550;2023-03-15T14:18:39;95818.94;;;14.80;43.66
21361;BME280;10839;43.206;23.550;2023-03-15T14:21:07;95819.56;;;14.92;43.60
21361;BME280;10839;43.206;23.550;2023-03-15T14:23:40;95823.31;;;14.86;43.87
21361;BME280;10839;43.206;23.550;2023-03-15T14:26:10;95821.91;;;14.79;43.97
21361;BME280;10839;43.206;23.550;2023-03-15T14:28:38;95823.31;;;14.86;44.11
21361;BME280;10839;43.206;23.550;2023-03-15T14:31:05;95808.34;;;14.57;44.57